createdAt,value
2022-09-02T03:15:14.320Z,5.90
2022-09-02T03:17:44.306Z,5.90
2022-09-02T03:20:13.184Z,5.90
2022-09-02T03:22:44.005Z,5.90
2022-09-02T03:25:13.519Z,6.00
2022-09-02T03:27:42.527Z,5.90
2022-09-02T03:30:13.114Z,5.90
2022-09-02T03:32:41.927Z,5.90
2022-09-02T03:35:16.569Z,5.90
2022-09-02T03:37:44.911Z,5.80
2022-09-02T03:40:17.224Z,5.80
2022-09-02T03:42:48.500Z,5.80
2022-09-02T03:45:18.199Z,5.80
2022-09-02T03:47:54.009Z,5.80
2022-09-02T03:50:31.429Z,5.70
2022-09-02T03:53:01.084Z,5.80
2022-09-02T03:55:29.881Z,5.80
2022-09-02T03:57:59.148Z,5.80
2022-09-02T04:00:30.498Z,5.90
2022-09-02T04:03:02.117Z,5.90
2022-09-02T04:05:33.047Z,5.80
2022-09-02T04:08:02.428Z,5.80
2022-09-02T04:10:31.389Z,5.80
2022-09-02T04:12:59.649Z,5.90
2022-09-02T04:15:27.926Z,5.80
2022-09-02T04:17:57.031Z,5.80
2022-09-02T04:20:25.679Z,5.90
2022-09-02T04:22:55.208Z,5.90
2022-09-02T04:25:27.653Z,6.00
2022-09-02T04:27:56.544Z,6.00
2022-09-02T04:30:25.521Z,6.00
2022-09-02T04:32:54.470Z,6.00
2022-09-02T04:35:23.577Z,6.00
2022-09-02T04:37:54.128Z,5.90
2022-09-02T04:40:22.893Z,5.90
2022-09-02T04:42:55.246Z,6.00
2022-09-02T04:45:27.861Z,6.00
2022-09-02T04:47:58.563Z,5.90
2022-09-02T04:50:26.831Z,6.10
2022-09-02T04:53:00.918Z,6.10
2022-09-02T04:55:31.576Z,6.20
2022-09-02T04:58:00.189Z,6.20
2022-09-02T05:00:29.182Z,6.20
2022-09-02T05:02:59.452Z,6.20
2022-09-02T05:05:31.051Z,6.30
2022-09-02T05:08:04.742Z,6.40
2022-09-02T05:10:40.759Z,6.50
2022-09-02T05:13:13.203Z,6.50
2022-09-02T05:15:42.084Z,6.60
2022-09-02T05:18:12.414Z,6.80
2022-09-02T05:20:45.285Z,6.60
2022-09-02T05:23:18.667Z,6.70
2022-09-02T05:25:48.301Z,6.90
2022-09-02T05:28:17.364Z,6.90
2022-09-02T05:30:45.718Z,6.90
2022-09-02T05:33:14.734Z,7.10
2022-09-02T05:35:46.076Z,7.30
2022-09-02T05:38:20.321Z,7.50
2022-09-02T05:40:49.184Z,7.70
2022-09-02T05:43:18.391Z,8.50
2022-09-02T05:45:48.945Z,9.50
2022-09-02T05:48:36.076Z,10.40
2022-09-02T05:51:06.444Z,10.90
2022-09-02T05:53:37.296Z,11.40
2022-09-02T05:56:06.291Z,12.20
2022-09-02T05:58:35.518Z,12.70
2022-09-02T06:01:09.220Z,13.30
2022-09-02T06:03:38.372Z,13.40
2022-09-02T06:06:09.068Z,13.00
2022-09-02T06:08:43.216Z,13.20
2022-09-02T06:11:13.153Z,13.40
2022-09-02T06:13:43.994Z,13.40
2022-09-02T06:16:15.135Z,14.00
2022-09-02T06:18:45.205Z,14.50
2022-09-02T06:21:14.139Z,15.30
2022-09-02T06:23:46.627Z,16.00
2022-09-02T06:26:17.022Z,17.00
2022-09-02T06:28:46.863Z,17.60
2022-09-02T06:31:19.725Z,17.00
2022-09-02T06:33:52.229Z,17.80
2022-09-02T06:36:23.375Z,19.10
2022-09-02T06:38:59.583Z,20.20
2022-09-02T06:41:30.382Z,20.10
2022-09-02T06:44:03.604Z,19.80
2022-09-02T06:46:40.239Z,18.90
2022-09-02T06:49:10.703Z,19.40
2022-09-02T06:51:42.727Z,19.80
2022-09-02T06:54:14.776Z,20.30
2022-09-02T06:56:49.437Z,20.70
2022-09-02T06:59:21.796Z,20.70
2022-09-02T07:01:53.921Z,21.00
2022-09-02T07:04:41.611Z,21.40
2022-09-02T07:07:12.453Z,21.50
2022-09-02T07:09:52.848Z,22.10
2022-09-02T07:12:21.256Z,21.80
2022-09-02T07:14:57.057Z,20.60
2022-09-02T07:17:33.501Z,20.50
2022-09-02T07:20:08.384Z,21.40
2022-09-02T07:22:44.489Z,21.80
2022-09-02T07:25:18.613Z,21.10
2022-09-02T07:27:51.459Z,20.50
2022-09-02T07:30:20.214Z,21.50
2022-09-02T07:32:53.870Z,21.60
2022-09-02T07:35:24.972Z,21.50
2022-09-02T07:37:53.831Z,22.20
2022-09-02T07:40:24.816Z,22.30
2022-09-02T07:42:53.808Z,22.60
2022-09-02T07:45:23.917Z,22.90
2022-09-02T07:47:52.180Z,22.80
2022-09-02T07:50:22.319Z,23.40
2022-09-02T07:52:59.472Z,23.20
2022-09-02T07:55:35.111Z,23.10
2022-09-02T07:58:05.577Z,23.50
2022-09-02T08:00:34.597Z,23.40
2022-09-02T08:03:10.184Z,23.00
2022-09-02T08:05:45.100Z,23.30
2022-09-02T08:08:13.459Z,23.40
2022-09-02T08:10:43.793Z,23.50
2022-09-02T08:13:12.187Z,23.40
2022-09-02T08:15:40.938Z,23.50
2022-09-02T08:18:09.412Z,23.40
2022-09-02T08:20:49.780Z,23.40
2022-09-02T08:23:33.528Z,23.30
2022-09-02T08:26:06.663Z,23.30
2022-09-02T08:28:35.219Z,23.10
2022-09-02T08:31:06.898Z,23.20
2022-09-02T08:33:35.428Z,23.00
2022-09-02T08:36:05.648Z,23.10
2022-09-02T08:38:33.882Z,22.70
2022-09-02T08:41:02.512Z,22.00
2022-09-02T08:43:38.511Z,21.80
2022-09-02T08:46:09.350Z,21.10
2022-09-02T08:48:41.835Z,20.20
2022-09-02T08:51:16.530Z,20.50
2022-09-02T08:53:51.350Z,20.20
2022-09-02T08:56:20.205Z,20.00
2022-09-02T08:58:56.618Z,19.60
2022-09-02T09:01:44.243Z,19.60
2022-09-02T09:04:34.126Z,19.60
2022-09-02T09:07:21.575Z,19.50
2022-09-02T09:10:03.587Z,19.40
2022-09-02T09:12:48.206Z,19.80
2022-09-02T09:15:23.574Z,20.40
2022-09-02T09:17:58.647Z,20.80
2022-09-02T09:20:28.441Z,21.00
2022-09-02T09:22:59.201Z,21.10
2022-09-02T09:25:29.852Z,20.40
2022-09-02T09:27:58.218Z,19.80
2022-09-02T09:30:28.744Z,19.20
2022-09-02T09:33:00.055Z,19.20
2022-09-02T09:35:29.528Z,19.00
2022-09-02T09:37:57.992Z,18.70
2022-09-02T09:40:32.374Z,18.90
2022-09-02T09:43:15.218Z,18.90
2022-09-02T09:45:47.253Z,19.20
2022-09-02T09:48:22.951Z,19.20
2022-09-02T09:51:12.015Z,19.50
2022-09-02T09:53:41.944Z,19.60
2022-09-02T09:56:32.399Z,19.40
2022-09-02T09:59:08.956Z,19.60
2022-09-02T10:01:38.727Z,19.70
2022-09-02T10:04:39.234Z,19.60
2022-09-02T10:06:59.327Z,19.80
2022-09-02T10:09:33.342Z,19.60
2022-09-02T10:12:04.073Z,19.20
2022-09-02T10:14:36.503Z,18.60
2022-09-02T10:17:23.441Z,18.80
2022-09-02T10:19:56.441Z,18.90
2022-09-02T10:23:00.638Z,19.00
2022-09-02T10:25:35.007Z,19.20
2022-09-02T10:28:15.281Z,19.40
2022-09-02T10:30:55.083Z,19.70
2022-09-02T10:33:39.124Z,19.80
2022-09-02T10:36:19.801Z,19.70
2022-09-02T10:38:50.897Z,19.70
2022-09-02T10:41:36.985Z,19.80
2022-09-02T10:44:25.430Z,20.20
2022-09-02T10:47:00.788Z,20.30
2022-09-02T10:49:52.757Z,20.50
2022-09-02T10:52:54.806Z,20.70
2022-09-02T10:55:37.995Z,21.20
2022-09-02T10:58:09.736Z,21.60
2022-09-02T11:00:42.600Z,21.50
2022-09-02T11:03:15.141Z,21.90
2022-09-02T11:05:49.594Z,22.10
2022-09-02T11:08:29.527Z,22.40
2022-09-02T11:11:06.533Z,22.10
2022-09-02T11:13:41.692Z,22.20
2022-09-02T11:16:16.110Z,22.30
2022-09-02T11:18:49.118Z,22.40
2022-09-02T11:21:32.699Z,22.10
2022-09-02T11:24:05.739Z,22.40
2022-09-02T11:26:40.542Z,22.20
2022-09-02T11:29:15.134Z,22.20
2022-09-02T11:31:46.146Z,22.40
2022-09-02T11:34:21.874Z,22.00
2022-09-02T11:36:52.431Z,21.80
2022-09-02T11:39:51.604Z,21.50
2022-09-02T11:42:37.453Z,21.70
2022-09-02T11:45:34.136Z,21.50
2022-09-02T11:48:36.185Z,21.60
2022-09-02T11:51:24.740Z,21.90
2022-09-02T11:53:57.037Z,22.10
2022-09-02T11:56:29.437Z,21.80
2022-09-02T11:58:57.741Z,21.40
2022-09-02T12:01:37.399Z,21.50
2022-09-02T12:07:33.998Z,21.10
2022-09-02T12:10:06.252Z,21.10
2022-09-02T12:13:04.171Z,21.00
2022-09-02T12:15:37.149Z,20.90
2022-09-02T12:18:14.103Z,20.60
2022-09-02T12:21:16.447Z,20.30
2022-09-02T12:24:26.513Z,20.40
2022-09-02T12:27:28.429Z,20.60
2022-09-02T12:29:58.866Z,20.70
2022-09-02T12:33:05.081Z,20.70
2022-09-02T12:36:06.118Z,20.90
2022-09-02T12:38:36.294Z,21.10
2022-09-02T12:41:16.323Z,21.30
2022-09-02T12:43:57.842Z,21.40
2022-09-02T12:46:35.000Z,21.20
2022-09-02T12:49:12.257Z,21.40
2022-09-02T12:51:55.124Z,21.40
2022-09-02T12:54:31.229Z,21.30
2022-09-02T12:57:00.031Z,21.30
2022-09-02T12:59:32.609Z,21.20
2022-09-02T13:02:19.397Z,21.00
2022-09-02T13:04:59.325Z,20.60
2022-09-02T13:08:03.577Z,20.30
2022-09-02T13:10:56.171Z,20.20
2022-09-02T13:13:52.555Z,20.20
2022-09-02T13:16:38.049Z,20.30
2022-09-02T13:19:33.409Z,20.60
2022-09-02T13:22:32.588Z,20.90
2022-09-02T13:25:33.500Z,20.80
2022-09-02T13:28:44.270Z,20.90
2022-09-02T13:31:20.629Z,21.10
2022-09-02T13:33:58.984Z,21.10
2022-09-02T13:36:30.926Z,21.00
2022-09-02T13:39:13.598Z,21.00
2022-09-02T13:41:41.854Z,20.70
2022-09-02T13:44:12.271Z,20.40
2022-09-02T13:46:48.941Z,20.00
2022-09-02T13:49:25.305Z,19.70
2022-09-02T13:51:55.919Z,19.50
2022-09-02T13:54:35.691Z,19.10
2022-09-02T13:57:07.324Z,18.90
2022-09-02T13:59:38.538Z,18.70
2022-09-02T14:02:24.209Z,18.60
2022-09-02T14:04:57.929Z,18.50
2022-09-02T14:07:31.530Z,18.50
2022-09-02T14:10:02.213Z,18.80
2022-09-02T14:12:33.769Z,19.10
2022-09-02T14:15:03.060Z,19.30
2022-09-02T14:17:31.222Z,19.50
2022-09-02T14:20:21.069Z,19.60
2022-09-02T14:22:56.876Z,19.60
2022-09-02T14:25:27.514Z,19.80
2022-09-02T14:27:58.123Z,19.90
2022-09-02T14:30:35.867Z,20.10
2022-09-02T14:33:25.833Z,20.30
2022-09-02T14:36:00.908Z,20.50
2022-09-02T14:38:30.887Z,20.60
2022-09-02T14:41:05.195Z,20.80
2022-09-02T14:43:44.376Z,20.90
2022-09-02T14:46:28.500Z,21.00
2022-09-02T14:49:02.829Z,20.90
2022-09-02T14:51:39.441Z,20.90
2022-09-02T14:54:08.911Z,20.70
2022-09-02T14:56:48.985Z,20.60
2022-09-02T14:59:17.553Z,20.40
2022-09-02T15:01:48.139Z,20.20
2022-09-02T15:04:17.033Z,20.10
2022-09-02T15:06:47.763Z,20.00
2022-09-02T15:09:16.832Z,19.90
2022-09-02T15:11:49.132Z,19.80
2022-09-02T15:14:17.298Z,19.60
2022-09-02T15:16:45.548Z,19.50
2022-09-02T15:19:14.743Z,19.20
2022-09-02T15:21:42.895Z,19.20
2022-09-02T15:24:12.834Z,19.10
2022-09-02T15:26:41.149Z,19.20
2022-09-02T15:29:09.500Z,19.20
2022-09-02T15:31:37.821Z,19.20
2022-09-02T15:34:06.242Z,19.20
2022-09-02T15:36:34.384Z,19.20
2022-09-02T15:39:02.572Z,19.20
2022-09-02T15:41:32.492Z,19.20
2022-09-02T15:44:00.893Z,19.20
2022-09-02T15:46:30.902Z,19.20
2022-09-02T15:49:04.366Z,19.10
2022-09-02T15:51:33.514Z,19.20
2022-09-02T15:54:03.533Z,19.10
2022-09-02T15:56:34.825Z,19.00
2022-09-02T15:59:05.034Z,19.00
2022-09-02T16:01:39.710Z,19.00
2022-09-02T16:04:09.302Z,19.00
2022-09-02T16:06:39.592Z,19.10
2022-09-02T16:09:08.852Z,19.10
2022-09-02T16:11:41.168Z,19.10
2022-09-02T16:14:09.505Z,19.10
2022-09-02T16:16:38.260Z,19.00
2022-09-02T16:19:08.569Z,19.00
2022-09-02T16:21:39.176Z,19.00
2022-09-02T16:24:08.251Z,18.90
2022-09-02T16:26:39.719Z,18.80
2022-09-02T16:29:11.505Z,18.80
2022-09-02T16:31:41.145Z,18.60
2022-09-02T16:34:10.875Z,18.40
2022-09-02T16:36:41.562Z,18.40
2022-09-02T16:39:10.664Z,18.40
2022-09-02T16:41:43.787Z,18.20
2022-09-02T16:44:13.607Z,18.10
2022-09-02T16:46:41.770Z,18.00
2022-09-02T16:49:11.135Z,17.90
2022-09-02T16:51:40.861Z,17.70
2022-09-02T16:54:17.319Z,17.60
2022-09-02T16:56:47.647Z,17.40
2022-09-02T16:59:15.824Z,17.30
2022-09-02T17:01:44.071Z,17.10
2022-09-02T17:04:12.221Z,17.00
2022-09-02T17:06:42.625Z,16.80
2022-09-02T17:09:11.196Z,16.70
2022-09-02T17:11:41.445Z,16.50
2022-09-02T17:14:16.119Z,16.30
2022-09-02T17:16:46.670Z,16.20
2022-09-02T17:19:21.019Z,16.00
2022-09-02T17:21:51.041Z,15.80
2022-09-02T17:24:20.532Z,15.70
2022-09-02T17:26:51.229Z,15.50
2022-09-02T17:32:10.637Z,15.20
2022-09-02T17:34:38.773Z,15.10
2022-09-02T17:37:06.919Z,14.90
2022-09-02T17:39:35.185Z,14.80
2022-09-02T17:42:03.085Z,14.70
2022-09-02T17:44:35.443Z,14.60
2022-09-02T17:47:06.076Z,14.50
2022-09-02T17:49:36.036Z,14.40
2022-09-02T17:52:05.437Z,14.30
2022-09-02T17:54:33.540Z,14.20
2022-09-02T17:57:11.902Z,14.20
2022-09-02T17:59:59.172Z,14.10
2022-09-02T18:02:50.424Z,14.00
2022-09-02T18:05:29.185Z,13.80
2022-09-02T18:08:01.340Z,13.90
2022-09-02T18:10:34.775Z,13.80
2022-09-02T18:13:06.156Z,13.70
2022-09-02T18:15:52.677Z,13.70
2022-09-02T18:18:21.658Z,13.70
2022-09-02T18:20:55.713Z,13.60
2022-09-02T18:23:53.246Z,13.50
2022-09-02T18:26:31.553Z,13.50
2022-09-02T18:29:12.669Z,13.40
2022-09-02T18:31:53.027Z,13.40
2022-09-02T18:34:39.345Z,13.30
2022-09-02T18:37:13.672Z,13.30
2022-09-02T18:40:02.891Z,13.20
2022-09-02T18:42:39.094Z,13.10
2022-09-02T18:45:17.230Z,13.10
2022-09-02T18:47:53.847Z,13.00
2022-09-02T18:50:47.511Z,12.90
2022-09-02T18:53:19.563Z,12.90
2022-09-02T18:55:49.244Z,12.80
2022-09-02T18:58:34.374Z,12.70
2022-09-02T19:01:08.031Z,12.70
2022-09-02T19:03:38.862Z,12.60
2022-09-02T19:06:13.086Z,12.50
2022-09-02T19:08:41.344Z,12.40
2022-09-02T19:11:13.696Z,12.30
2022-09-02T19:13:48.094Z,12.30
2022-09-02T19:16:18.634Z,12.20
2022-09-02T19:18:48.614Z,12.10
2022-09-02T19:21:23.167Z,12.00
2022-09-02T19:23:51.547Z,11.90
2022-09-02T19:26:20.127Z,11.80
2022-09-02T19:28:49.437Z,11.70
2022-09-02T19:31:23.030Z,11.70
2022-09-02T19:33:55.338Z,11.50
2022-09-02T19:36:26.441Z,11.70
2022-09-02T19:39:00.061Z,11.40
2022-09-02T19:41:28.591Z,11.40
2022-09-02T19:43:57.465Z,11.30
2022-09-02T19:47:07.009Z,11.30
2022-09-02T19:49:15.212Z,11.20
2022-09-02T19:51:43.726Z,11.20
2022-09-02T19:54:13.803Z,11.20
2022-09-02T19:56:43.335Z,11.20
2022-09-02T19:59:11.966Z,11.10
2022-09-02T20:01:40.154Z,11.00
2022-09-02T20:04:08.526Z,11.00
2022-09-02T20:06:38.037Z,11.00
2022-09-02T20:09:06.334Z,10.80
2022-09-02T20:11:37.179Z,10.90
2022-09-02T20:14:09.828Z,10.80
2022-09-02T20:16:38.064Z,10.80
2022-09-02T20:19:06.571Z,10.80
2022-09-02T20:21:43.221Z,10.70
2022-09-02T20:24:15.822Z,10.60
2022-09-02T20:26:53.420Z,10.60
2022-09-02T20:29:40.146Z,10.50
2022-09-02T20:32:22.310Z,10.50
2022-09-02T20:35:01.613Z,10.40
2022-09-02T20:37:41.120Z,10.40
2022-09-02T20:40:27.109Z,10.40
2022-09-02T20:43:21.875Z,10.30
2022-09-02T20:45:56.446Z,10.30
2022-09-02T20:48:39.999Z,10.30
2022-09-02T20:51:13.103Z,10.20
2022-09-02T20:54:05.344Z,10.20
2022-09-02T20:56:42.600Z,10.10
2022-09-02T20:59:21.458Z,10.10
2022-09-02T21:01:51.454Z,10.10
2022-09-02T21:04:33.206Z,10.00
2022-09-02T21:07:06.067Z,10.00
2022-09-02T21:09:43.374Z,9.90
2022-09-02T21:12:21.535Z,9.90
2022-09-02T21:14:55.447Z,9.80
2022-09-02T21:17:35.392Z,9.70
2022-09-02T21:20:13.072Z,9.70
2022-09-02T21:22:45.661Z,9.70
2022-09-02T21:25:20.429Z,9.60
2022-09-02T21:27:54.524Z,9.60
2022-09-02T21:30:25.319Z,9.50
2022-09-02T21:32:58.333Z,9.50
2022-09-02T21:35:30.078Z,9.50
2022-09-02T21:38:02.903Z,9.40
2022-09-02T21:40:45.834Z,9.30
2022-09-02T21:43:27.578Z,9.30
2022-09-02T21:46:03.820Z,9.40
2022-09-02T21:48:41.154Z,9.30
2022-09-02T21:51:17.083Z,9.20
2022-09-02T21:53:58.208Z,9.20
2022-09-02T21:56:41.628Z,9.20
2022-09-02T21:59:36.273Z,9.10
2022-09-02T22:02:09.102Z,9.10
2022-09-02T22:04:51.884Z,9.00
2022-09-02T22:07:25.238Z,9.00
2022-09-02T22:10:04.139Z,8.90
2022-09-02T22:12:39.689Z,8.90
2022-09-02T22:15:14.930Z,8.80
2022-09-02T22:17:51.393Z,8.80
2022-09-02T22:20:23.251Z,8.80
2022-09-02T22:22:54.423Z,8.70
2022-09-02T22:25:23.060Z,8.70
2022-09-02T22:27:58.022Z,8.70
2022-09-02T22:30:27.659Z,8.70
2022-09-02T22:33:03.840Z,8.60
2022-09-02T22:35:36.860Z,8.60
2022-09-02T22:38:10.777Z,8.60
2022-09-02T22:40:44.253Z,8.60
2022-09-02T22:43:19.021Z,8.50
2022-09-02T22:46:09.708Z,8.60
2022-09-02T22:49:00.511Z,8.40
2022-09-02T22:51:51.975Z,8.40
2022-09-02T22:54:20.098Z,8.40
2022-09-02T22:56:54.667Z,8.30
2022-09-02T22:59:42.847Z,8.30
2022-09-02T23:02:18.105Z,8.30
2022-09-02T23:05:36.238Z,8.30
2022-09-02T23:08:06.122Z,8.20
2022-09-02T23:10:39.714Z,8.20
